Time;durP1;ratioP1;P1;durP2;ratioP2;P2;SDS_P1;SDS_P2;PMS_P1;PMS_P2;Temp;Humidity;BMP_temperature;BMP_pressure;BME280_temperature;BME280_humidity;BME280_pressure;Samples;Min_cycle;Max_cycle;Signal;HPM_P1;HPM_P2
2024/02/01 00:00:20;;;;;;;47.80;16.70;;;;;;;-0.86;48.01;95060.03;5045010;28;20021;-75
2024/02/01 00:02:45;;;;;;;56.88;17.83;;;;;;;-0.89;48.33;95057.06;5045240;28;20013;-75
2024/02/01 00:05:11;;;;;;;41.95;16.33;;;;;;;-0.90;48.23;95058.06;5045165;28;20343;-75
2024/02/01 00:07:36;;;;;;;57.13;17.50;;;;;;;-0.88;48.06;95059.44;5043945;28;20051;-75
2024/02/01 00:10:02;;;;;;;43.78;15.77;;;;;;;-0.88;47.62;95064.66;5045079;28;20026;-75
2024/02/01 00:12:27;;;;;;;45.20;15.65;;;;;;;-0.86;48.27;95061.84;5044842;28;20020;-75
2024/02/01 00:14:53;;;;;;;40.03;15.90;;;;;;;-0.89;48.46;95060.47;5044736;28;20017;-75
2024/02/01 00:17:18;;;;;;;45.97;15.80;;;;;;;-0.99;49.18;95054.09;5044656;28;20267;-75
2024/02/01 00:19:43;;;;;;;33.38;14.95;;;;;;;-0.95;49.12;95055.28;5044791;28;20088;-75
2024/02/01 00:22:09;;;;;;;44.30;15.02;;;;;;;-0.95;48.80;95047.44;5044719;28;20028;-75
2024/02/01 00:24:34;;;;;;;40.88;13.95;;;;;;;-0.97;48.99;95050.25;5044553;28;20048;-75
2024/02/01 00:26:59;;;;;;;39.50;14.27;;;;;;;-1.01;48.75;95044.63;5044624;28;20059;-75
2024/02/01 00:29:26;;;;;;;45.83;14.82;;;;;;;-0.98;48.38;95050.47;5044416;28;20021;-75
2024/02/01 00:31:51;;;;;;;36.15;13.90;;;;;;;-1.04;48.49;95041.63;5044532;28;20319;-75
2024/02/01 00:34:16;;;;;;;41.95;14.00;;;;;;;-1.08;49.05;95041.28;5044294;28;20048;-75
2024/02/01 00:36:42;;;;;;;34.72;13.75;;;;;;;-1.05;48.68;95035.59;5044360;28;20028;-75
2024/02/01 00:39:07;;;;;;;36.63;13.23;;;;;;;-1.10;48.92;95039.84;5044413;28;20045;-75
2024/02/01 00:41:32;;;;;;;33.00;13.48;;;;;;;-1.12;49.41;95045.31;5044134;28;20018;-73
2024/02/01 00:43:58;;;;;;;34.65;14.15;;;;;;;-1.21;49.56;95036.91;5044351;28;20021;-74
2024/02/01 00:46:23;;;;;;;31.60;14.18;;;;;;;-1.17;49.41;95042.53;5044326;28;20021;-73
2024/02/01 00:48:48;;;;;;;36.22;12.90;;;;;;;-1.19;49.81;95038.53;5044177;28;20029;-74
2024/02/01 00:51:14;;;;;;;38.85;12.65;;;;;;;-1.19;49.57;95044.56;5044119;28;20017;-73
2024/02/01 00:53:41;;;;;;;33.63;12.13;;;;;;;-1.21;49.57;95041.34;5044021;28;20017;-73
2024/02/01 00:56:06;;;;;;;31.13;11.77;;;;;;;-1.22;49.67;95040.53;5044077;28;20021;-72
2024/02/01 00:58:31;;;;;;;22.77;10.50;;;;;;;-1.19;49.45;95038.53;5044066;28;20098;-73
2024/02/01 01:00:57;;;;;;;32.13;11.30;;;;;;;-1.23;49.20;95041.53;5043967;28;20021;-73
2024/02/01 01:03:22;;;;;;;26.75;10.52;;;;;;;-1.23;49.49;95038.94;5042712;28;20088;-73
2024/02/01 01:05:47;;;;;;;23.75;10.40;;;;;;;-1.26;49.17;95041.97;5042691;28;20032;-72
2024/02/01 01:08:13;;;;;;;34.05;10.93;;;;;;;-1.29;49.12;95037.16;5043701;28;20032;-72
2024/02/01 01:10:39;;;;;;;24.65;9.57;;;;;;;-1.32;49.56;95036.75;5044001;28;20311;-72
2024/02/01 01:13:04;;;;;;;26.52;10.35;;;;;;;-1.31;49.41;95030.53;5043993;28;20224;-73
2024/02/01 01:15:30;;;;;;;28.08;10.93;;;;;;;-1.32;49.35;95031.53;5043716;28;20040;-72
2024/02/01 01:17:55;;;;;;;24.95;9.70;;;;;;;-1.32;49.53;95023.69;5043696;28;20025;-72
2024/02/01 01:20:21;;;;;;;28.70;10.43;;;;;;;-1.37;49.50;95010.44;5043289;28;20079;-72
2024/02/01 01:22:46;;;;;;;26.92;9.73;;;;;;;-1.36;49.09;95014.66;5043385;28;20037;-72
2024/02/01 01:25:13;;;;;;;25.25;9.35;;;;;;;-1.38;49.16;95016.69;5043630;28;20044;-72
2024/02/01 01:27:38;;;;;;;22.38;9.80;;;;;;;-1.44;49.07;95006.06;5043651;28;20025;-73
2024/02/01 01:30:05;;;;;;;32.83;10.85;;;;;;;-1.46;49.22;95002.84;5043475;28;20228;-72
2024/02/01 01:32:31;;;;;;;26.85;10.25;;;;;;;-1.48;49.37;95004.09;5043158;28;20029;-72
2024/02/01 01:34:56;;;;;;;32.97;11.63;;;;;;;-1.50;49.22;95004.28;5043164;28;20024;-72
2024/02/01 01:37:22;;;;;;;30.70;10.00;;;;;;;-1.51;49.58;95000.06;5043388;28;20246;-73
2024/02/01 01:39:47;;;;;;;33.10;9.95;;;;;;;-1.51;49.71;95004.47;5043311;28;20032;-72
2024/02/01 01:42:13;;;;;;;29.35;9.80;;;;;;;-1.56;49.50;95002.50;5043138;28;20017;-72
2024/02/01 01:44:38;;;;;;;26.23;9.27;;;;;;;-1.52;49.28;94995.84;5043142;28;20058;-72
2024/02/01 01:47:04;;;;;;;26.27;9.60;;;;;;;-1.54;49.61;94995.25;5043007;28;20032;-74
2024/02/01 01:49:30;;;;;;;25.70;8.73;;;;;;;-1.58;49.79;94996.69;5043004;28;20036;-72
2024/02/01 01:51:55;;;;;;;24.23;8.85;;;;;;;-1.62;49.99;94996.28;5042600;28;20084;-72
2024/02/01 01:54:24;;;;;;;18.58;8.60;;;;;;;-1.65;49.93;94994.09;5043026;28;20096;-71
2024/02/01 01:56:51;;;;;;;24.50;9.20;;;;;;;-1.62;49.36;94996.28;5042946;28;20071;-71
2024/02/01 01:59:19;;;;;;;22.60;9.27;;;;;;;-1.64;49.57;94994.91;5042775;28;20028;-71
2024/02/01 02:01:47;;;;;;;26.38;9.60;;;;;;;-1.60;49.12;94985.63;5042834;28;20037;-72
2024/02/01 02:04:15;;;;;;;22.55;8.52;;;;;;;-1.61;50.17;94989.25;5042899;28;20033;-72
2024/02/01 02:06:42;;;;;;;29.25;9.43;;;;;;;-1.63;50.22;94988.66;5042850;28;20048;-72
2024/02/01 02:09:15;;;;;;;22.52;8.77;;;;;;;-1.64;49.70;94984.44;5042897;28;20088;-73
2024/02/01 02:11:43;;;;;;;25.25;10.68;;;;;;;-1.66;49.35;94983.84;5042775;28;20017;-73
2024/02/01 02:14:14;;;;;;;24.15;9.48;;;;;;;-1.65;49.47;94974.97;5042988;28;20028;-73
2024/02/01 02:16:39;;;;;;;21.67;9.32;;;;;;;-1.63;49.36;94973.78;5042880;28;20022;-72
2024/02/01 02:19:09;;;;;;;33.08;10.07;;;;;;;-1.64;49.66;94971.38;5042798;28;20059;-72
2024/02/01 02:21:39;;;;;;;25.65;9.35;;;;;;;-1.65;49.33;94972.38;5042550;28;20022;-73
2024/02/01 02:24:05;;;;;;;28.77;8.77;;;;;;;-1.69;50.24;94972.00;5042776;28;20037;-72
2024/02/01 02:26:32;;;;;;;24.85;9.95;;;;;;;-1.69;50.19;94976.41;5042711;28;20040;-72
2024/02/01 02:28:58;;;;;;;23.17;9.55;;;;;;;-1.74;50.57;94974.44;5042693;28;20021;-74
2024/02/01 02:31:23;;;;;;;23.38;9.13;;;;;;;-1.74;50.51;94978.88;5042625;28;20231;-72
2024/02/01 02:33:49;;;;;;;27.88;10.48;;;;;;;-1.73;50.43;94977.84;5042468;28;20079;-73
2024/02/01 02:36:14;;;;;;;26.42;10.00;;;;;;;-1.74;50.65;94974.44;5042580;28;20025;-73
2024/02/01 02:38:40;;;;;;;31.50;9.85;;;;;;;-1.78;50.30;94962.00;5042582;28;20018;-72
2024/02/01 02:41:05;;;;;;;27.88;9.95;;;;;;;-1.78;50.73;94962.78;5042549;28;20101;-71
2024/02/01 02:43:31;;;;;;;29.88;10.68;;;;;;;-1.74;50.68;94973.63;5042528;28;20044;-71
2024/02/01 02:45:57;;;;;;;28.08;10.02;;;;;;;-1.77;50.62;94968.81;5042378;28;20052;-71
2024/02/01 02:48:22;;;;;;;29.65;10.75;;;;;;;-1.81;50.90;94973.69;5042561;28;20021;-71
2024/02/01 02:50:47;;;;;;;27.27;10.48;;;;;;;-1.83;50.85;94976.50;5042515;28;20028;-71
2024/02/01 02:53:13;;;;;;;27.20;10.13;;;;;;;-1.86;50.91;94979.50;5042387;28;20029;-71
2024/02/01 02:55:38;;;;;;;26.05;11.02;;;;;;;-1.88;50.84;94963.22;5042555;28;20024;-72
2024/02/01 02:58:03;;;;;;;29.55;10.57;;;;;;;-1.87;51.15;94964.84;5042211;28;20037;-72
2024/02/01 03:00:32;;;;;;;27.08;10.32;;;;;;;-1.88;51.29;94960.63;5042220;28;20109;-72
2024/02/01 03:02:58;;;;;;;30.95;10.63;;;;;;;-1.89;51.76;94961.66;5042382;28;20032;-72
2024/02/01 03:05:24;;;;;;;32.42;10.00;;;;;;;-1.88;51.83;94952.78;5046076;28;20323;-72
2024/02/01 03:07:51;;;;;;;29.77;10.82;;;;;;;-1.93;52.04;94947.41;5045939;28;20060;-72
2024/02/01 03:10:19;;;;;;;25.35;10.82;;;;;;;-1.93;52.54;94954.44;5045993;28;20021;-72
2024/02/01 03:12:45;;;;;;;21.30;9.52;;;;;;;-1.99;52.51;94948.22;5045699;28;20065;-72
2024/02/01 03:15:10;;;;;;;28.40;9.27;;;;;;;-2.02;52.45;94946.00;5046053;28;20104;-73
2024/02/01 03:17:37;;;;;;;25.42;8.45;;;;;;;-2.08;52.60;94950.25;5046071;28;20197;-73
2024/02/01 03:20:22;;;;;;;20.00;8.60;;;;;;;-2.07;52.51;94956.31;5045927;28;20319;-73
2024/02/01 03:22:56;;;;;;;24.50;7.20;;;;;;;-2.09;52.48;94945.25;5045629;28;20038;-73
2024/02/01 03:25:34;;;;;;;18.23;7.10;;;;;;;-2.10;52.62;94951.47;5045731;28;20036;-73
2024/02/01 03:28:00;;;;;;;19.05;7.57;;;;;;;-2.16;52.80;94950.47;5045789;28;20017;-73
2024/02/01 03:30:33;;;;;;;21.40;7.60;;;;;;;-2.20;53.13;94949.28;5045577;28;20261;-73
2024/02/01 03:33:03;;;;;;;23.15;7.05;;;;;;;-2.19;52.60;94935.25;5045553;28;20335;-73
2024/02/01 03:35:31;;;;;;;17.77;8.07;;;;;;;-2.19;53.09;94943.06;5045495;28;20029;-72
2024/02/01 03:38:00;;;;;;;29.30;10.18;;;;;;;-2.24;53.41;94937.66;5045489;28;20047;-72
2024/02/01 03:40:26;;;;;;;26.90;9.27;;;;;;;-2.25;53.48;94942.09;5045243;28;20320;-72
2024/02/01 03:42:51;;;;;;;28.92;9.98;;;;;;;-2.30;53.33;94934.09;5045399;28;20093;-72
2024/02/01 03:45:17;;;;;;;23.65;10.05;;;;;;;-2.36;53.92;94934.91;5045257;28;20237;-73
2024/02/01 03:47:45;;;;;;;27.45;11.25;;;;;;;-2.34;53.56;94925.06;5045396;28;20025;-73
2024/02/01 03:50:12;;;;;;;25.90;10.07;;;;;;;-2.40;53.76;94930.28;5045306;28;20021;-72
2024/02/01 03:52:39;;;;;;;24.02;10.60;;;;;;;-2.41;53.95;94926.88;5045331;28;20024;-73
2024/02/01 03:55:16;;;;;;;23.27;10.10;;;;;;;-2.40;54.43;94931.09;5045240;28;20048;-74
2024/02/01 03:57:42;;;;;;;24.40;9.82;;;;;;;-2.40;54.51;94933.72;5045197;28;20022;-73
2024/02/01 04:00:24;;;;;;;28.90;10.43;;;;;;;-2.40;54.69;94936.31;5045311;28;20272;-74
2024/02/01 04:02:53;;;;;;;25.38;8.98;;;;;;;-2.40;54.16;94932.88;5045042;28;20033;-74
2024/02/01 04:05:18;;;;;;;28.80;13.25;;;;;;;-2.43;54.37;94929.69;5045043;28;20033;-72
2024/02/01 04:07:44;;;;;;;43.95;12.73;;;;;;;-2.38;54.67;94936.91;5044767;28;20261;-73
2024/02/01 04:10:10;;;;;;;32.83;12.30;;;;;;;-2.34;54.31;94922.44;5045168;28;20029;-73
2024/02/01 04:12:36;;;;;;;30.10;12.25;;;;;;;-2.32;54.52;94927.44;5045062;28;20192;-73
2024/02/01 04:15:02;;;;;;;24.50;11.10;;;;;;;-2.31;53.93;94919.41;5044227;28;20032;-74
2024/02/01 04:17:28;;;;;;;31.83;12.55;;;;;;;-2.31;54.07;94924.63;5044513;28;20025;-73
2024/02/01 04:19:53;;;;;;;24.95;11.20;;;;;;;-2.31;53.86;94914.19;5044608;28;20029;-73
2024/02/01 04:22:21;;;;;;;26.50;11.38;;;;;;;-2.29;53.84;94920.00;5044578;28;20034;-73
2024/02/01 04:24:47;;;;;;;26.13;11.35;;;;;;;-2.23;53.77;94924.41;5044677;28;20029;-74
2024/02/01 04:27:13;;;;;;;26.50;11.02;;;;;;;-2.30;53.77;94922.81;5044511;28;20017;-73
2024/02/01 04:29:38;;;;;;;23.77;10.80;;;;;;;-2.33;53.98;94928.47;5044695;28;20022;-73
2024/02/01 04:32:04;;;;;;;25.98;12.32;;;;;;;-2.31;54.07;94927.25;5044437;28;20211;-73
2024/02/01 04:34:30;;;;;;;24.88;11.45;;;;;;;-2.36;54.63;94931.47;5044889;28;20106;-73
2024/02/01 04:36:56;;;;;;;26.65;12.15;;;;;;;-2.33;54.57;94928.47;5044536;28;20101;-75
2024/02/01 04:39:22;;;;;;;28.70;10.63;;;;;;;-2.31;54.71;94934.28;5044470;28;20025;-72
2024/02/01 04:41:53;;;;;;;18.58;8.10;;;;;;;-2.36;53.08;94928.84;5044385;28;20086;-72
2024/02/01 04:44:20;;;;;;;32.20;12.05;;;;;;;-2.43;53.33;94927.06;5044517;28;20022;-72
2024/02/01 04:46:45;;;;;;;27.98;10.25;;;;;;;-2.46;54.58;94924.09;5044680;28;20093;-72
2024/02/01 04:49:13;;;;;;;24.33;11.00;;;;;;;-2.47;54.42;94925.88;5044673;28;20032;-73
2024/02/01 04:51:39;;;;;;;32.20;14.10;;;;;;;-2.50;54.69;94918.47;5044835;28;20038;-73
2024/02/01 04:54:06;;;;;;;24.65;10.27;;;;;;;-2.52;55.10;94919.69;5044180;28;20067;-73
2024/02/01 04:56:32;;;;;;;24.77;9.52;;;;;;;-2.48;54.87;94910.44;5044098;28;20025;-73
2024/02/01 04:58:57;;;;;;;25.58;11.13;;;;;;;-2.50;54.83;94904.63;5044061;28;20397;-73
2024/02/01 05:01:24;;;;;;;26.17;9.98;;;;;;;-2.53;54.88;94908.44;5044185;28;20068;-73
2024/02/01 05:03:50;;;;;;;23.85;9.75;;;;;;;-2.52;54.93;94904.03;5044219;28;20051;-73
2024/02/01 05:06:19;;;;;;;20.65;8.13;;;;;;;-2.53;55.37;94907.63;5044044;28;20029;-73
2024/02/01 05:08:45;;;;;;;19.38;7.80;;;;;;;-2.52;55.22;94904.81;5044222;28;20280;-73
2024/02/01 05:11:11;;;;;;;22.45;6.32;;;;;;;-2.55;54.64;94915.66;5043935;28;20021;-72
2024/02/01 05:13:37;;;;;;;16.30;6.18;;;;;;;-2.56;54.21;94918.50;5044189;28;20033;-72
2024/02/01 05:16:03;;;;;;;20.15;7.40;;;;;;;-2.59;53.62;94917.06;5043869;28;20092;-71
2024/02/01 05:18:29;;;;;;;17.95;7.70;;;;;;;-2.63;53.17;94914.09;5043963;28;20324;-71
2024/02/01 05:20:55;;;;;;;19.38;8.60;;;;;;;-2.60;53.35;94912.09;5043779;28;20180;-71
2024/02/01 05:23:20;;;;;;;32.95;12.25;;;;;;;-2.63;54.56;94915.88;5043676;28;20087;-71
2024/02/01 05:25:45;;;;;;;32.38;11.05;;;;;;;-2.64;55.55;94912.47;5043158;28;20040;-71
2024/02/01 05:28:11;;;;;;;30.25;12.85;;;;;;;-2.64;55.79;94902.03;5043024;28;20462;-72
2024/02/01 05:30:40;;;;;;;31.27;11.82;;;;;;;-2.66;56.32;94904.06;5043672;28;20040;-73
2024/02/01 05:33:05;;;;;;;38.13;15.02;;;;;;;-2.65;56.59;94910.84;5043565;28;20036;-72
2024/02/01 05:35:33;;;;;;;34.10;12.70;;;;;;;-2.64;56.88;94907.25;5043360;28;20029;-73
2024/02/01 05:38:00;;;;;;;40.13;15.55;;;;;;;-2.60;57.24;94914.69;5043251;28;20095;-73
2024/02/01 05:40:27;;;;;;;38.42;14.77;;;;;;;-2.64;57.03;94906.47;5043350;28;20050;-73
2024/02/01 05:42:53;;;;;;;53.10;14.35;;;;;;;-2.61;57.70;94906.03;5043402;28;20021;-72
2024/02/01 05:45:20;;;;;;;34.05;14.43;;;;;;;-2.60;56.17;94901.66;5043371;28;20041;-72
2024/02/01 05:47:45;;;;;;;39.67;14.35;;;;;;;-2.68;56.61;94898.22;5043609;28;20021;-71
2024/02/01 05:50:14;;;;;;;35.58;13.00;;;;;;;-2.68;56.94;94900.84;5043167;28;20080;-72
2024/02/01 05:52:40;;;;;;;39.92;15.57;;;;;;;-2.75;57.10;94889.59;5043163;28;20017;-71
2024/02/01 05:55:07;;;;;;;39.13;13.95;;;;;;;-2.71;57.37;94896.03;5043256;28;20033;-71
2024/02/01 05:57:36;;;;;;;42.45;13.60;;;;;;;-2.64;57.06;94906.47;5042932;28;20219;-71
2024/02/01 06:00:06;;;;;;;53.13;19.88;;;;;;;-2.64;57.23;94911.69;5043039;28;20029;-71
2024/02/01 06:02:32;;;;;;;56.90;19.55;;;;;;;-2.65;57.82;94920.50;5042627;28;20092;-72
2024/02/01 06:04:58;;;;;;;49.90;20.25;;;;;;;-2.65;58.17;94926.53;5043046;28;20017;-72
2024/02/01 06:07:25;;;;;;;53.80;21.80;;;;;;;-2.66;58.97;94922.31;5043245;28;20250;-72
2024/02/01 06:09:51;;;;;;;47.13;18.58;;;;;;;-2.59;58.73;94931.94;5042820;28;20041;-72
2024/02/01 06:12:16;;;;;;;44.08;19.02;;;;;;;-2.54;58.51;94921.72;5043446;28;20044;-73
2024/02/01 06:14:41;;;;;;;48.70;19.58;;;;;;;-2.56;59.26;94932.34;5042965;28;20017;-73
2024/02/01 06:17:07;;;;;;;63.17;22.00;;;;;;;-2.56;59.64;94932.34;5043273;28;20399;-74
2024/02/01 06:19:32;;;;;;;52.63;23.27;;;;;;;-2.57;60.00;94928.13;5042817;28;20088;-72
2024/02/01 06:21:58;;;;;;;65.95;24.58;;;;;;;-2.55;60.92;94922.69;5043109;28;20021;-73
2024/02/01 06:24:23;;;;;;;63.67;23.40;;;;;;;-2.55;61.31;94920.88;5042765;28;20403;-74
2024/02/01 06:26:49;;;;;;;65.50;25.10;;;;;;;-2.53;61.65;94918.88;5042811;28;20342;-74
2024/02/01 06:29:15;;;;;;;53.20;22.48;;;;;;;-2.46;61.70;94924.09;5042817;28;20120;-74
2024/02/01 06:31:40;;;;;;;61.70;24.73;;;;;;;-2.49;61.68;94908.81;5042890;28;20092;-74
2024/02/01 06:34:12;;;;;;;54.65;23.38;;;;;;;-2.47;61.96;94915.44;5042628;28;20022;-75
2024/02/01 06:36:43;;;;;;;67.32;24.50;;;;;;;-2.39;62.16;94908.41;5042727;28;20025;-73
2024/02/01 06:44:27;;;;;;;69.28;26.45;;;;;;;-2.21;62.31;94903.31;5046699;28;20036;-73
2024/02/01 06:49:39;;;;;;;70.65;26.63;;;;;;;-2.03;62.48;94895.56;5046456;28;20036;-73
2024/02/01 06:58:03;;;;;;;82.72;28.13;;;;;;;-1.79;61.86;94902.88;5046372;28;20375;-74
2024/02/01 07:03:21;;;;;;;80.72;30.85;;;;;;;-1.65;62.78;94891.31;5046320;28;20373;-73
2024/02/01 07:08:55;;;;;;;92.95;34.35;;;;;;;-1.54;62.70;94888.06;5046345;28;20105;-73
2024/02/01 07:16:35;;;;;;;86.30;34.97;;;;;;;-1.41;62.27;94885.31;5046280;28;20080;-72
2024/02/01 07:19:23;;;;;;;90.80;31.95;;;;;;;-1.33;62.09;94880.84;5046324;28;20029;-73
2024/02/01 07:59:58;;;;;;;71.13;27.50;;;;;;;-0.17;58.94;94854.91;5044691;28;20116;-75
2024/02/01 08:02:44;;;;;;;81.85;28.25;;;;;;;-0.08;58.45;94846.50;5045354;28;20029;-74
2024/02/01 08:07:54;;;;;;;69.80;27.20;;;;;;;0.09;58.21;94848.50;5043566;28;20381;-73
2024/02/01 08:10:19;;;;;;;73.78;27.50;;;;;;;0.21;57.36;94838.84;5044131;28;20033;-74
2024/02/01 08:12:48;;;;;;;64.40;24.00;;;;;;;0.35;56.86;94836.84;5044738;28;20088;-74
2024/02/01 08:15:20;;;;;;;63.17;26.75;;;;;;;0.47;56.22;94837.66;5044734;28;20021;-74
2024/02/01 08:17:50;;;;;;;;;;;;;;;0.62;55.88;94833.81;5044813;28;20025;-75
2024/02/01 08:20:19;;;;;;;75.65;24.50;;;;;;;0.70;55.39;94834.25;5044892;28;19905;-74
2024/02/01 08:22:45;;;;;;;67.03;25.05;;;;;;;0.70;53.58;94836.88;5044400;28;20097;-74
2024/02/01 08:25:12;;;;;;;68.63;26.30;;;;;;;0.82;53.77;94834.28;5045035;28;20028;-74
2024/02/01 08:27:38;;;;;;;71.05;27.23;;;;;;;1.00;53.42;94830.75;5045104;28;20022;-73
2024/02/01 08:30:12;;;;;;;77.25;26.70;;;;;;;1.13;52.60;94824.44;5045134;28;20024;-73
2024/02/01 08:32:39;;;;;;;71.90;25.85;;;;;;;1.23;52.13;94824.66;5045230;28;20028;-73
2024/02/01 08:35:10;;;;;;;66.15;24.95;;;;;;;1.29;51.75;94826.38;5044955;28;20025;-73
2024/02/01 08:37:38;;;;;;;65.65;25.10;;;;;;;1.41;50.85;94828.97;5044953;28;20033;-73
2024/02/01 08:40:16;;;;;;;57.13;24.60;;;;;;;1.46;50.67;94841.41;5044513;28;20029;-73
2024/02/01 08:42:42;;;;;;;61.25;24.17;;;;;;;1.52;50.29;94843.91;5044799;28;20052;-73
2024/02/01 08:45:08;;;;;;;56.20;23.55;;;;;;;1.54;49.77;94841.84;5044851;28;20287;-73
2024/02/01 08:47:36;;;;;;;66.90;26.73;;;;;;;1.58;49.41;94848.22;5044438;28;20017;-73
2024/02/01 08:50:06;;;;;;;65.20;25.42;;;;;;;1.61;49.51;94852.25;5044535;28;20088;-73
2024/02/01 08:52:33;;;;;;;58.85;26.33;;;;;;;1.60;49.56;94840.13;5044677;28;20017;-73
2024/02/01 08:54:59;;;;;;;79.10;27.95;;;;;;;1.62;49.75;94843.31;5043937;28;20289;-73
2024/02/01 08:57:25;;;;;;;67.97;27.50;;;;;;;1.71;49.98;94841.09;5043759;28;20021;-73
2024/02/01 08:59:50;;;;;;;65.57;25.40;;;;;;;1.78;49.10;94834.69;5043743;28;20038;-73
2024/02/01 09:02:18;;;;;;;59.97;24.42;;;;;;;1.78;48.15;94837.31;5043508;28;20477;-73
2024/02/01 09:04:46;;;;;;;65.75;25.35;;;;;;;1.79;48.13;94820.53;5043268;28;20064;-73
2024/02/01 09:07:12;;;;;;;67.60;24.95;;;;;;;1.92;47.82;94824.72;5043531;28;20024;-73
2024/02/01 09:09:39;;;;;;;69.25;26.65;;;;;;;2.00;47.58;94818.28;5043877;28;20165;-73
2024/02/01 09:12:05;;;;;;;91.03;26.40;;;;;;;1.99;48.02;94819.31;5043837;28;20044;-73
2024/02/01 09:14:34;;;;;;;81.25;28.38;;;;;;;2.12;47.68;94815.59;5043480;28;20021;-73
2024/02/01 09:17:00;;;;;;;73.53;27.80;;;;;;;2.20;47.33;94809.97;5043677;28;20537;-73
2024/02/01 09:19:25;;;;;;;56.78;25.48;;;;;;;2.18;46.37;94815.44;5043478;28;20033;-73
2024/02/01 09:21:51;;;;;;;56.80;23.85;;;;;;;2.19;46.29;94798.63;5043466;28;20030;-73
2024/02/01 09:24:19;;;;;;;55.35;24.08;;;;;;;2.39;46.00;94800.00;5043192;28;20045;-73
2024/02/01 09:26:46;;;;;;;71.25;26.13;;;;;;;2.56;45.58;94785.00;5043473;28;20044;-73
2024/02/01 09:29:11;;;;;;;58.67;24.85;;;;;;;2.70;44.88;94795.22;5042201;28;20035;-73
2024/02/01 09:31:37;;;;;;;61.50;24.83;;;;;;;2.81;44.10;94794.34;5043462;28;20045;-73
2024/02/01 09:34:04;;;;;;;62.63;24.92;;;;;;;2.78;44.08;94790.34;5043513;28;20043;-73
2024/02/01 09:36:30;;;;;;;68.95;25.23;;;;;;;2.79;44.16;94778.00;5041991;28;20026;-73
2024/02/01 09:38:56;;;;;;;64.65;25.85;;;;;;;2.83;44.38;94789.63;5041510;28;20377;-73
2024/02/01 09:41:22;;;;;;;55.72;24.95;;;;;;;2.73;45.15;94778.97;5041535;28;20332;-73
2024/02/01 09:43:50;;;;;;;78.90;26.15;;;;;;;2.83;43.91;94788.81;5042417;28;20025;-73
2024/02/01 09:46:17;;;;;;;61.28;26.10;;;;;;;2.91;43.79;94783.13;5043015;28;20300;-73
2024/02/01 09:48:44;;;;;;;61.78;23.83;;;;;;;2.99;43.17;94778.28;5042947;28;20243;-73
2024/02/01 09:51:17;;;;;;;59.78;24.77;;;;;;;3.05;43.16;94775.69;5042898;28;20279;-73
2024/02/01 09:53:48;;;;;;;55.92;25.17;;;;;;;3.14;43.64;94772.41;5042984;28;20111;-73
2024/02/01 09:56:14;;;;;;;73.17;23.90;;;;;;;3.28;43.90;94770.22;5042870;28;20227;-73
2024/02/01 09:58:41;;;;;;;77.28;27.15;;;;;;;3.40;43.61;94767.47;5042738;28;20046;-73
2024/02/01 10:01:09;;;;;;;58.17;24.42;;;;;;;3.48;43.11;94763.59;5042960;28;20064;-73
2024/02/01 10:03:35;;;;;;;62.55;24.55;;;;;;;3.65;43.00;94763.53;5042954;28;20025;-75
2024/02/01 10:06:04;;;;;;;63.97;25.60;;;;;;;3.77;42.69;94751.78;5042535;28;20025;-74
2024/02/01 10:08:33;;;;;;;55.05;25.42;;;;;;;3.71;42.00;94741.44;5043091;28;20029;-71
2024/02/01 10:11:00;;;;;;;64.32;26.38;;;;;;;3.80;42.39;94740.72;5042799;28;20092;-71
2024/02/01 10:13:30;;;;;;;67.65;26.38;;;;;;;3.96;42.50;94738.25;5041980;28;20227;-80
2024/02/01 10:15:56;;;;;;;68.45;28.10;;;;;;;4.11;42.28;94734.94;5042505;28;20033;-81
2024/02/01 10:18:23;;;;;;;63.05;26.00;;;;;;;4.23;42.26;94730.31;5042638;28;20101;-79
2024/02/01 10:20:58;;;;;;;70.00;27.02;;;;;;;4.39;41.61;94726.72;5042492;28;20045;-79
2024/02/01 10:23:24;;;;;;;71.72;27.65;;;;;;;4.35;41.61;94719.59;5042579;28;20264;-78
2024/02/01 10:25:53;;;;;;;70.38;28.88;;;;;;;4.42;41.41;94710.41;5042641;28;20091;-78
2024/02/01 10:28:21;;;;;;;68.38;27.27;;;;;;;4.42;41.44;94701.69;5042424;28;20021;-79
2024/02/01 10:30:49;;;;;;;73.75;28.80;;;;;;;4.65;40.96;94697.88;5042434;28;20033;-79
2024/02/01 10:33:19;;;;;;;69.70;30.50;;;;;;;4.82;40.69;94697.72;5042610;28;20044;-79
2024/02/01 10:35:51;;;;;;;58.90;27.77;;;;;;;4.98;40.00;94696.72;5042606;28;20024;-79
2024/02/01 10:38:26;;;;;;;65.47;29.20;;;;;;;5.06;39.64;94689.38;5042452;28;20350;-79
2024/02/01 10:40:52;;;;;;;74.32;31.08;;;;;;;5.16;39.13;94692.84;5042249;28;20116;-79
2024/02/01 10:43:25;;;;;;;84.75;28.75;;;;;;;5.16;38.76;94678.84;5042511;28;20096;-80
2024/02/01 10:46:05;;;;;;;69.57;28.77;;;;;;;5.12;39.16;94683.06;5042506;28;20037;-78
2024/02/01 10:48:34;;;;;;;76.53;29.30;;;;;;;5.20;38.48;94672.00;5042470;28;20025;-79
2024/02/01 10:51:09;;;;;;;65.88;28.60;;;;;;;5.23;38.43;94658.25;5041025;28;20033;-79
2024/02/01 10:53:38;;;;;;;66.05;29.48;;;;;;;5.32;38.16;94658.56;5042537;28;20056;-79
2024/02/01 10:56:13;;;;;;;78.68;29.88;;;;;;;5.34;38.54;94657.25;5042365;28;20028;-79
2024/02/01 10:58:45;;;;;;;66.93;29.48;;;;;;;5.45;39.11;94649.34;5042447;28;20096;-79
2024/02/01 11:01:31;;;;;;;69.63;30.10;;;;;;;5.66;38.88;94644.88;5042261;28;20048;-79
2024/02/01 11:03:59;;;;;;;62.03;28.92;;;;;;;5.80;38.34;94638.81;5040592;28;20053;-79
2024/02/01 11:06:26;;;;;;;108.22;32.33;;;;;;;5.88;37.46;94642.00;5042400;28;20096;-78
2024/02/01 11:08:53;;;;;;;62.97;28.95;;;;;;;5.97;37.31;94635.16;5042226;28;20029;-78
2024/02/01 11:11:40;;;;;;;65.40;29.38;;;;;;;6.18;36.77;94630.63;5042104;28;20018;-78
2024/02/01 11:14:11;;;;;;;73.32;31.20;;;;;;;6.29;36.35;94626.13;5042244;28;20033;-80
2024/02/01 11:16:48;;;;;;;70.30;32.85;;;;;;;6.30;36.17;94619.78;5042372;28;20064;-80
2024/02/01 11:19:17;;;;;;;73.55;31.73;;;;;;;6.32;35.44;94621.09;5042176;28;20083;-80
2024/02/01 11:21:57;;;;;;;65.55;27.88;;;;;;;6.34;34.42;94626.91;5042204;28;20271;-80
2024/02/01 11:24:26;;;;;;;73.93;27.92;;;;;;;6.26;34.90;94616.06;5042381;28;20045;-80
2024/02/01 11:27:07;;;;;;;62.30;28.33;;;;;;;6.25;34.71;94612.66;5045616;28;20021;-79
2024/02/01 11:29:38;;;;;;;63.63;26.98;;;;;;;6.30;34.73;94604.69;5045711;28;20195;-79
2024/02/01 11:32:05;;;;;;;54.92;25.38;;;;;;;6.41;34.25;94597.50;5045572;28;20032;-79
2024/02/01 11:34:32;;;;;;;62.45;27.42;;;;;;;6.43;34.45;94595.38;5045469;28;20092;-79
2024/02/01 11:36:58;;;;;;;56.78;26.55;;;;;;;6.49;35.06;94596.16;5045500;28;20316;-81
2024/02/01 11:39:25;;;;;;;64.00;28.08;;;;;;;6.71;34.88;94593.19;5045455;28;20096;-82
2024/02/01 11:41:52;;;;;;;55.65;26.92;;;;;;;6.89;34.46;94583.84;5045604;28;20036;-83
2024/02/01 11:44:28;;;;;;;61.70;26.30;;;;;;;7.02;33.12;94594.66;5060893;28;20227;-82
2024/02/01 11:46:54;;;;;;;49.70;25.05;;;;;;;7.18;32.94;94589.28;5044233;28;20025;-83
2024/02/01 11:49:22;;;;;;;60.13;24.05;;;;;;;7.23;32.90;94584.75;5045311;28;20022;-84
2024/02/01 11:52:22;;;;;;;56.85;25.75;;;;;;;7.31;32.42;94590.56;5045318;28;20311;-82
2024/02/01 11:54:53;;;;;;;62.08;26.67;;;;;;;7.29;32.60;94588.16;5045470;28;20025;-83
2024/02/01 11:57:25;;;;;;;51.60;24.27;;;;;;;7.27;32.50;94574.38;5045341;28;20261;-82
2024/02/01 11:59:51;;;;;;;63.78;26.77;;;;;;;7.25;32.73;94581.03;5043792;28;20374;-82
2024/02/01 12:02:17;;;;;;;45.80;22.10;;;;;;;7.27;32.17;94568.31;5045130;28;20216;-80
2024/02/01 12:04:47;;;;;;;54.28;24.90;;;;;;;7.36;32.34;94572.72;5045262;28;20021;-84
2024/02/01 12:07:14;;;;;;;48.65;23.38;;;;;;;7.41;32.76;94570.06;5045350;28;20021;-82
2024/02/01 12:09:41;;;;;;;60.10;24.23;;;;;;;7.44;32.40;94569.50;5044692;28;20062;-80
2024/02/01 12:12:07;;;;;;;54.88;23.55;;;;;;;7.49;32.03;94560.72;5045135;28;20211;-80
2024/02/01 12:14:38;;;;;;;53.75;25.02;;;;;;;7.54;32.55;94560.69;5043866;28;20032;-82
2024/02/01 12:17:04;;;;;;;44.30;20.63;;;;;;;7.65;31.65;94553.44;5044696;28;20200;-83
2024/02/01 12:19:38;;;;;;;69.95;23.50;;;;;;;7.74;31.43;94553.66;5044847;28;20034;-81
2024/02/01 12:22:07;;;;;;;34.67;16.67;;;;;;;7.76;31.33;94546.22;5044682;28;20032;-82
2024/02/01 12:24:36;;;;;;;39.50;17.75;;;;;;;7.69;31.03;94538.53;5044432;28;20209;-82
2024/02/01 12:27:06;;;;;;;41.70;16.75;;;;;;;7.73;31.31;94536.91;5044514;28;20125;-80
2024/02/01 12:29:32;;;;;;;33.40;16.27;;;;;;;7.83;31.12;94534.19;5044650;28;20025;-81